createdAt,value
2023-05-18T00:01:22.701Z,8.90
2023-05-18T00:03:49.875Z,8.60
2023-05-18T00:06:17.573Z,8.80
2023-05-18T00:08:44.644Z,8.90
2023-05-18T00:11:11.711Z,9.00
2023-05-18T00:13:38.747Z,9.10
2023-05-18T00:16:05.942Z,9.10
2023-05-18T00:18:34.137Z,9.20
2023-05-18T00:21:01.869Z,9.00
2023-05-18T00:23:32.936Z,9.00
2023-05-18T00:26:00.340Z,9.00
2023-05-18T00:28:27.482Z,9.00
2023-05-18T00:30:54.282Z,8.90
2023-05-18T00:33:21.464Z,8.80
2023-05-18T00:35:49.154Z,8.60
2023-05-18T00:38:16.362Z,8.50
2023-05-18T00:40:43.359Z,8.60
2023-05-18T00:43:11.306Z,8.70
2023-05-18T00:45:38.474Z,8.70
2023-05-18T00:48:05.934Z,8.70
2023-05-18T00:50:32.770Z,8.70
2023-05-18T00:53:00.167Z,8.50
2023-05-18T00:55:28.641Z,8.40
2023-05-18T00:57:56.880Z,8.50
2023-05-18T01:00:24.048Z,8.60
2023-05-18T01:02:51.353Z,8.60
2023-05-18T01:05:19.903Z,8.60
2023-05-18T01:07:47.846Z,8.70
2023-05-18T01:10:16.189Z,8.60
2023-05-18T01:12:47.221Z,8.50
2023-05-18T01:15:18.898Z,8.50
2023-05-18T01:17:52.398Z,8.40
2023-05-18T01:20:24.317Z,8.40
2023-05-18T01:23:01.862Z,8.40
2023-05-18T01:25:44.366Z,8.40
2023-05-18T01:28:14.011Z,8.40
2023-05-18T01:30:41.448Z,8.40
2023-05-18T01:33:09.532Z,8.40
2023-05-18T01:35:37.057Z,8.30
2023-05-18T01:38:04.799Z,8.30
2023-05-18T01:40:35.068Z,8.30
2023-05-18T01:43:07.843Z,8.10
2023-05-18T01:45:35.949Z,7.90
2023-05-18T01:48:03.332Z,7.90
2023-05-18T01:50:37.639Z,7.70
2023-05-18T01:53:04.627Z,7.60
2023-05-18T01:55:32.147Z,7.50
2023-05-18T01:58:00.561Z,7.80
2023-05-18T02:00:27.242Z,8.00
2023-05-18T02:02:54.203Z,8.10
2023-05-18T02:05:21.347Z,8.10
2023-05-18T02:07:48.133Z,8.20
2023-05-18T02:10:16.085Z,8.30
2023-05-18T02:12:43.060Z,8.30
2023-05-18T02:15:10.594Z,8.20
2023-05-18T02:17:38.193Z,8.10
2023-05-18T02:20:07.252Z,8.10
2023-05-18T02:22:34.585Z,8.00
2023-05-18T02:25:01.964Z,8.00
2023-05-18T02:27:28.672Z,7.90
2023-05-18T02:29:56.755Z,7.80
2023-05-18T02:32:23.597Z,7.70
2023-05-18T02:34:53.230Z,7.70
2023-05-18T02:37:20.210Z,7.80
2023-05-18T02:39:47.160Z,7.60
2023-05-18T02:42:14.203Z,7.50
2023-05-18T02:44:42.155Z,7.40
2023-05-18T02:47:09.116Z,7.30
2023-05-18T02:49:36.268Z,7.30
2023-05-18T02:52:03.267Z,7.30
2023-05-18T02:54:31.798Z,7.30
2023-05-18T02:56:58.873Z,7.10
2023-05-18T02:59:25.674Z,7.10
2023-05-18T03:01:52.640Z,7.00
2023-05-18T03:04:20.085Z,7.00
2023-05-18T03:06:47.454Z,6.90
2023-05-18T03:09:15.774Z,6.90
2023-05-18T03:11:42.588Z,6.90
2023-05-18T03:14:09.525Z,6.80
2023-05-18T03:16:38.796Z,6.70
2023-05-18T03:19:05.911Z,6.70
2023-05-18T03:21:36.312Z,6.80
2023-05-18T03:24:03.711Z,6.70
2023-05-18T03:26:31.765Z,6.80
2023-05-18T03:28:59.186Z,6.70
2023-05-18T03:31:26.340Z,7.00
2023-05-18T03:33:53.305Z,7.00
2023-05-18T03:36:22.495Z,7.00
2023-05-18T03:38:49.480Z,7.10
2023-05-18T03:41:16.431Z,7.20
2023-05-18T03:43:43.195Z,7.40
2023-05-18T03:46:11.138Z,7.20
2023-05-18T03:48:37.835Z,7.00
2023-05-18T03:51:04.980Z,6.80
2023-05-18T03:53:33.689Z,6.90
2023-05-18T03:56:00.587Z,7.00
2023-05-18T03:58:27.591Z,7.20
2023-05-18T04:00:54.239Z,7.30
2023-05-18T04:03:21.622Z,7.40
2023-05-18T04:05:49.718Z,7.50
2023-05-18T04:08:16.538Z,7.60
2023-05-18T04:10:44.203Z,7.70
2023-05-18T04:13:11.087Z,7.70
2023-05-18T04:15:38.137Z,7.80
2023-05-18T04:18:05.267Z,7.80
2023-05-18T04:20:32.260Z,7.70
2023-05-18T04:22:59.230Z,7.70
2023-05-18T04:25:29.056Z,7.80
2023-05-18T04:27:56.532Z,7.70
2023-05-18T04:30:23.590Z,7.60
2023-05-18T04:32:50.956Z,7.50
2023-05-18T04:35:18.667Z,7.50
2023-05-18T04:37:45.675Z,7.70
2023-05-18T04:40:13.938Z,7.80
2023-05-18T04:42:45.500Z,7.90
2023-05-18T04:45:16.315Z,8.00
2023-05-18T04:47:46.435Z,7.90
2023-05-18T04:50:16.990Z,7.90
2023-05-18T04:52:48.983Z,8.10
2023-05-18T04:55:19.937Z,8.20
2023-05-18T04:57:47.663Z,8.10
2023-05-18T05:00:15.026Z,8.10
2023-05-18T05:02:42.032Z,8.00
2023-05-18T05:05:10.956Z,7.90
2023-05-18T05:07:38.001Z,7.90
2023-05-18T05:10:06.076Z,7.90
2023-05-18T05:12:32.957Z,7.90
2023-05-18T05:14:59.939Z,7.90
2023-05-18T05:17:27.130Z,7.90
2023-05-18T05:19:54.106Z,8.10
2023-05-18T05:22:21.153Z,8.10
2023-05-18T05:24:48.222Z,8.20
2023-05-18T05:27:15.219Z,8.20
2023-05-18T05:29:43.009Z,8.10
2023-05-18T05:32:12.330Z,8.10
2023-05-18T05:34:40.060Z,8.30
2023-05-18T05:37:07.114Z,8.10
2023-05-18T05:39:34.124Z,8.20
2023-05-18T05:42:01.311Z,8.40
2023-05-18T05:44:28.259Z,8.50
2023-05-18T05:46:55.346Z,8.70
2023-05-18T05:49:22.333Z,8.80
2023-05-18T05:51:49.457Z,8.80
2023-05-18T05:54:16.398Z,8.70
2023-05-18T05:56:43.518Z,9.00
2023-05-18T05:59:10.687Z,9.10
2023-05-18T06:01:37.822Z,9.20
2023-05-18T06:04:06.546Z,9.10
2023-05-18T06:06:33.372Z,9.00
2023-05-18T06:09:00.221Z,9.20
2023-05-18T06:11:27.175Z,9.20
2023-05-18T06:13:54.156Z,9.20
2023-05-18T06:16:21.426Z,9.20
2023-05-18T06:18:48.962Z,9.60
2023-05-18T06:21:15.938Z,9.80
2023-05-18T06:23:43.097Z,9.90
2023-05-18T06:26:10.143Z,10.20
2023-05-18T06:28:36.881Z,10.80
2023-05-18T06:31:03.549Z,11.10
2023-05-18T06:33:30.895Z,11.10
2023-05-18T06:35:57.674Z,10.60
2023-05-18T06:38:24.670Z,10.60
2023-05-18T06:40:51.809Z,10.80
2023-05-18T06:43:18.736Z,10.40
2023-05-18T06:45:47.115Z,11.00
2023-05-18T06:48:14.042Z,11.80
2023-05-18T06:50:41.077Z,12.80
2023-05-18T06:53:08.358Z,13.20
2023-05-18T06:55:35.227Z,12.80
2023-05-18T06:58:03.136Z,13.20
2023-05-18T07:00:30.792Z,12.40
2023-05-18T07:02:57.669Z,12.50
2023-05-18T07:05:24.645Z,12.10
2023-05-18T07:07:51.780Z,11.80
2023-05-18T07:10:18.531Z,11.60
2023-05-18T07:12:45.420Z,11.50
2023-05-18T07:15:12.379Z,11.50
2023-05-18T07:17:39.508Z,11.60
2023-05-18T07:20:07.256Z,12.20
2023-05-18T07:22:34.390Z,12.40
2023-05-18T07:25:01.419Z,12.40
2023-05-18T07:27:28.636Z,11.70
2023-05-18T07:29:55.977Z,11.80
2023-05-18T07:32:23.281Z,11.80
2023-05-18T07:34:50.137Z,12.60
2023-05-18T07:37:17.041Z,13.80
2023-05-18T07:39:44.185Z,15.20
2023-05-18T07:42:11.371Z,15.30
2023-05-18T07:44:38.244Z,16.00
2023-05-18T07:47:05.407Z,16.70
2023-05-18T07:49:32.294Z,16.40
2023-05-18T07:52:00.432Z,16.50
2023-05-18T07:54:27.558Z,16.20
2023-05-18T07:56:54.305Z,17.00
2023-05-18T07:59:21.360Z,17.90
2023-05-18T08:01:49.332Z,17.40
2023-05-18T08:04:16.341Z,17.80
2023-05-18T08:06:43.328Z,18.60
2023-05-18T08:09:10.342Z,17.50
2023-05-18T08:11:37.153Z,18.10
2023-05-18T08:14:04.090Z,18.60
2023-05-18T08:16:34.645Z,18.20
2023-05-18T08:19:01.484Z,18.60
2023-05-18T08:21:28.545Z,18.20
2023-05-18T08:23:55.760Z,19.20
2023-05-18T08:26:22.519Z,18.60
2023-05-18T08:28:49.605Z,19.20
2023-05-18T08:31:16.594Z,19.20
2023-05-18T08:33:45.202Z,19.60
2023-05-18T08:36:12.294Z,20.70
2023-05-18T08:38:39.029Z,20.80
2023-05-18T08:41:15.587Z,20.50
2023-05-18T08:43:45.840Z,20.10
2023-05-18T08:46:29.251Z,19.90
2023-05-18T08:48:59.058Z,19.80
2023-05-18T08:51:28.717Z,19.90
2023-05-18T08:53:55.703Z,19.90
2023-05-18T08:56:23.433Z,20.30
2023-05-18T08:58:51.482Z,20.50
2023-05-18T09:01:18.588Z,20.80
2023-05-18T09:03:46.675Z,20.80
2023-05-18T09:06:15.631Z,20.60
2023-05-18T09:08:43.588Z,20.30
2023-05-18T09:11:12.679Z,20.30
2023-05-18T09:13:39.449Z,20.60
2023-05-18T09:16:08.062Z,19.70
2023-05-18T09:18:35.356Z,20.40
2023-05-18T09:21:02.280Z,21.30
2023-05-18T09:23:29.336Z,21.10
2023-05-18T09:25:56.839Z,21.70
2023-05-18T09:28:42.906Z,21.50
2023-05-18T09:31:12.463Z,21.70
2023-05-18T09:33:40.108Z,22.60
2023-05-18T09:36:08.121Z,21.50
2023-05-18T09:38:39.222Z,21.90
2023-05-18T09:41:17.125Z,20.20
2023-05-18T09:43:45.813Z,19.90
2023-05-18T09:46:13.325Z,19.90
2023-05-18T09:48:44.327Z,19.00
2023-05-18T09:51:13.667Z,18.80
2023-05-18T09:53:40.658Z,18.90
2023-05-18T09:56:11.822Z,18.50
2023-05-18T09:58:41.539Z,18.90
2023-05-18T10:01:08.264Z,18.20
2023-05-18T10:03:39.418Z,18.50
2023-05-18T10:06:06.707Z,19.00
2023-05-18T10:08:33.981Z,18.50
2023-05-18T10:11:01.293Z,17.70
2023-05-18T10:13:28.998Z,17.80
2023-05-18T10:15:57.185Z,17.60
2023-05-18T10:18:27.797Z,18.00
2023-05-18T10:20:57.279Z,18.60
2023-05-18T10:23:30.949Z,18.40
2023-05-18T10:25:58.380Z,17.60
2023-05-18T10:28:30.824Z,17.90
2023-05-18T10:30:58.403Z,17.20
2023-05-18T10:33:29.636Z,18.10
2023-05-18T10:35:57.515Z,18.70
2023-05-18T10:38:28.147Z,20.50
2023-05-18T10:40:56.454Z,21.20
2023-05-18T10:43:27.527Z,20.80
2023-05-18T10:45:58.986Z,22.20
2023-05-18T10:48:26.635Z,21.60
2023-05-18T10:50:54.288Z,22.50
2023-05-18T10:53:22.717Z,22.50
2023-05-18T10:55:50.663Z,23.30
2023-05-18T10:58:21.591Z,23.20
2023-05-18T11:00:52.582Z,23.10
2023-05-18T11:03:19.973Z,23.10
2023-05-18T11:05:52.186Z,21.80
2023-05-18T11:08:29.226Z,23.10
2023-05-18T11:11:00.631Z,22.50
2023-05-18T11:13:31.474Z,20.60
2023-05-18T11:16:01.297Z,21.10
2023-05-18T11:18:43.273Z,19.90
2023-05-18T11:21:20.582Z,19.80
2023-05-18T11:24:06.504Z,19.50
2023-05-18T11:26:37.760Z,19.00
2023-05-18T11:29:17.207Z,18.60
2023-05-18T11:32:02.762Z,18.80
2023-05-18T11:34:40.002Z,20.20
2023-05-18T11:37:10.229Z,21.40
2023-05-18T11:39:47.884Z,21.40
2023-05-18T11:42:20.444Z,20.40
2023-05-18T11:44:55.629Z,19.90
2023-05-18T11:47:24.018Z,19.60
2023-05-18T11:49:53.825Z,20.00
2023-05-18T11:52:24.294Z,20.50
2023-05-18T11:54:53.198Z,20.80
2023-05-18T11:57:21.246Z,21.30
2023-05-18T11:59:48.590Z,21.40
2023-05-18T12:02:21.525Z,21.30
2023-05-18T12:04:50.700Z,21.40
2023-05-18T12:07:19.099Z,20.30
2023-05-18T12:09:47.136Z,21.90
2023-05-18T12:12:17.240Z,22.90
2023-05-18T12:15:05.843Z,24.00
2023-05-18T12:17:42.828Z,23.00
2023-05-18T12:20:13.531Z,21.40
2023-05-18T12:22:41.513Z,21.00
2023-05-18T12:25:08.945Z,20.60
2023-05-18T12:27:40.140Z,21.10
2023-05-18T12:30:09.713Z,21.40
2023-05-18T12:32:36.750Z,21.30
2023-05-18T12:35:04.890Z,21.30
2023-05-18T12:37:41.782Z,21.90
2023-05-18T12:40:12.355Z,21.90
2023-05-18T12:42:39.125Z,21.70
2023-05-18T12:45:07.304Z,21.90
2023-05-18T12:47:40.827Z,21.60
2023-05-18T12:50:09.928Z,21.80
2023-05-18T12:52:46.094Z,22.10
2023-05-18T12:55:23.019Z,21.90
2023-05-18T12:58:04.071Z,21.80
2023-05-18T13:00:37.412Z,20.90
2023-05-18T13:03:11.033Z,20.90
2023-05-18T13:05:42.496Z,21.20
2023-05-18T13:08:16.264Z,21.10
2023-05-18T13:10:43.693Z,21.30
2023-05-18T13:13:10.606Z,20.20
2023-05-18T13:15:38.480Z,19.20
2023-05-18T13:18:10.632Z,18.20
2023-05-18T13:20:43.557Z,18.00
2023-05-18T13:23:14.146Z,18.00
2023-05-18T13:25:41.764Z,17.90
2023-05-18T13:28:10.694Z,18.10
2023-05-18T13:30:38.349Z,17.90
2023-05-18T13:33:05.901Z,17.80
2023-05-18T13:35:33.174Z,17.70
2023-05-18T13:38:00.210Z,18.00
2023-05-18T13:40:27.438Z,17.90
2023-05-18T13:42:54.434Z,17.70
2023-05-18T13:45:24.085Z,17.20
2023-05-18T13:47:51.809Z,17.10
2023-05-18T13:50:19.248Z,17.70
2023-05-18T13:52:47.502Z,18.00
2023-05-18T13:55:15.359Z,18.10
2023-05-18T13:57:44.420Z,18.00
2023-05-18T14:00:13.184Z,17.80
2023-05-18T14:02:40.954Z,17.50
2023-05-18T14:05:11.132Z,17.40
2023-05-18T14:07:38.378Z,17.80
2023-05-18T14:10:08.708Z,18.00
2023-05-18T14:12:36.265Z,17.70
2023-05-18T14:15:03.510Z,17.50
2023-05-18T14:17:30.828Z,17.70
2023-05-18T14:19:57.873Z,17.50
2023-05-18T14:22:26.151Z,17.40
2023-05-18T14:24:54.250Z,17.50
2023-05-18T14:27:22.141Z,17.50
2023-05-18T14:29:50.765Z,17.60
2023-05-18T14:32:22.587Z,17.60
2023-05-18T14:34:51.945Z,17.70
2023-05-18T14:37:18.925Z,17.50
2023-05-18T14:39:46.109Z,17.50
2023-05-18T14:42:12.986Z,17.30
2023-05-18T14:44:40.037Z,17.60
2023-05-18T14:47:07.389Z,17.60
2023-05-18T14:49:34.553Z,17.60
2023-05-18T14:52:01.505Z,17.60
2023-05-18T14:54:28.189Z,17.60
2023-05-18T14:56:55.301Z,17.70
2023-05-18T14:59:23.554Z,17.60
2023-05-18T15:01:52.660Z,17.70
2023-05-18T15:04:21.836Z,17.90
2023-05-18T15:06:49.467Z,17.40
2023-05-18T15:09:18.136Z,17.60
2023-05-18T15:11:46.915Z,17.40
2023-05-18T15:14:13.918Z,17.60
2023-05-18T15:16:42.565Z,17.70
2023-05-18T15:19:11.709Z,17.80
2023-05-18T15:21:45.732Z,17.80
2023-05-18T15:24:13.592Z,18.00
2023-05-18T15:26:46.411Z,17.50
2023-05-18T15:29:13.681Z,17.50
2023-05-18T15:31:41.719Z,17.70
2023-05-18T15:34:08.773Z,17.80
2023-05-18T15:36:38.244Z,17.90
2023-05-18T15:39:05.303Z,17.60
2023-05-18T15:41:35.356Z,17.60
2023-05-18T15:44:04.342Z,17.70
2023-05-18T15:46:35.569Z,17.60
2023-05-18T15:49:04.045Z,17.50
2023-05-18T15:51:31.512Z,17.50
2023-05-18T15:53:59.553Z,17.40
2023-05-18T15:56:27.685Z,17.30
2023-05-18T15:58:54.780Z,17.60
2023-05-18T16:01:21.524Z,17.80
2023-05-18T16:03:50.724Z,17.70
2023-05-18T16:06:19.605Z,17.80
2023-05-18T16:08:46.679Z,17.80
2023-05-18T16:11:13.771Z,17.70
2023-05-18T16:13:40.804Z,17.60
2023-05-18T16:16:10.126Z,17.70
2023-05-18T16:18:36.973Z,17.70
2023-05-18T16:21:04.027Z,17.50
2023-05-18T16:23:31.009Z,17.50
2023-05-18T16:25:58.089Z,17.80
2023-05-18T16:28:25.150Z,17.80
2023-05-18T16:30:51.774Z,17.70
2023-05-18T16:33:21.598Z,17.70
2023-05-18T16:35:50.320Z,17.60
2023-05-18T16:38:18.247Z,17.70
2023-05-18T16:40:45.264Z,17.70
2023-05-18T16:43:12.253Z,17.60
2023-05-18T16:45:40.681Z,17.60
2023-05-18T16:48:07.612Z,17.50
2023-05-18T16:50:35.023Z,17.50
2023-05-18T16:53:04.424Z,17.60
2023-05-18T16:55:32.398Z,17.60
2023-05-18T16:58:00.541Z,17.40
2023-05-18T17:00:27.767Z,17.20
2023-05-18T17:02:56.130Z,17.20
2023-05-18T17:05:23.084Z,17.40
2023-05-18T17:07:50.985Z,17.10
2023-05-18T17:10:18.880Z,17.20
2023-05-18T17:12:45.842Z,17.20
2023-05-18T17:15:12.941Z,17.20
2023-05-18T17:17:43.535Z,17.20
2023-05-18T17:20:11.582Z,17.30
2023-05-18T17:22:40.621Z,17.20
2023-05-18T17:25:08.589Z,17.10
2023-05-18T17:27:35.553Z,17.10
2023-05-18T17:30:02.644Z,17.00
2023-05-18T17:32:30.781Z,16.90
2023-05-18T17:34:59.579Z,16.70
2023-05-18T17:37:29.440Z,16.70
2023-05-18T17:39:56.500Z,16.80
2023-05-18T17:42:23.529Z,16.70
2023-05-18T17:44:56.341Z,16.60
2023-05-18T17:47:24.265Z,16.50
2023-05-18T17:49:56.887Z,16.60
2023-05-18T17:52:24.897Z,16.70
2023-05-18T17:54:52.260Z,16.70
2023-05-18T17:57:19.458Z,16.60
2023-05-18T17:59:53.345Z,16.70
2023-05-18T18:02:20.458Z,16.60
2023-05-18T18:04:48.818Z,16.40
2023-05-18T18:07:17.794Z,16.60
2023-05-18T18:09:50.622Z,16.60
2023-05-18T18:12:19.164Z,16.60
2023-05-18T18:14:46.021Z,16.60
2023-05-18T18:17:23.816Z,16.40
2023-05-18T18:19:56.603Z,16.40
2023-05-18T18:22:23.485Z,16.40
2023-05-18T18:24:52.518Z,16.30
2023-05-18T18:27:25.085Z,16.40
2023-05-18T18:29:51.948Z,16.40
2023-05-18T18:32:19.782Z,16.30
2023-05-18T18:34:46.496Z,16.10
2023-05-18T18:37:13.466Z,16.00
2023-05-18T18:39:42.180Z,15.90
2023-05-18T18:42:09.238Z,16.00
2023-05-18T18:44:36.265Z,16.10
2023-05-18T18:47:04.181Z,16.10
2023-05-18T18:49:32.048Z,16.10
2023-05-18T18:51:59.901Z,16.00
2023-05-18T18:54:28.643Z,15.90
2023-05-18T18:56:55.739Z,16.00
2023-05-18T18:59:23.601Z,15.80
2023-05-18T19:01:50.683Z,15.80
2023-05-18T19:04:20.941Z,15.70
2023-05-18T19:06:55.209Z,15.70
2023-05-18T19:09:22.721Z,15.50
2023-05-18T19:11:49.808Z,15.20
2023-05-18T19:14:16.959Z,15.10
2023-05-18T19:16:43.937Z,15.00
2023-05-18T19:19:16.713Z,14.80
2023-05-18T19:21:46.553Z,14.70
2023-05-18T19:24:19.255Z,14.70
2023-05-18T19:26:49.322Z,14.70
2023-05-18T19:29:16.538Z,14.50
2023-05-18T19:31:46.399Z,14.40
2023-05-18T19:34:15.331Z,14.30
2023-05-18T19:36:46.511Z,14.10
2023-05-18T19:39:19.289Z,13.90
2023-05-18T19:41:46.418Z,13.80
2023-05-18T19:44:16.704Z,13.70
2023-05-18T19:46:45.853Z,13.90
2023-05-18T19:49:16.036Z,14.00
2023-05-18T19:51:46.015Z,14.10
2023-05-18T19:54:13.025Z,13.80
2023-05-18T19:56:40.124Z,13.80
2023-05-18T19:59:07.789Z,13.90
2023-05-18T20:01:34.673Z,13.80
2023-05-18T20:04:01.719Z,13.70
2023-05-18T20:06:31.593Z,13.60
2023-05-18T20:09:00.617Z,13.60
2023-05-18T20:11:27.810Z,13.70
2023-05-18T20:13:55.682Z,13.90
2023-05-18T20:16:22.700Z,14.00
2023-05-18T20:18:49.712Z,14.00
2023-05-18T20:21:23.641Z,14.10
2023-05-18T20:23:52.503Z,14.10
2023-05-18T20:26:20.222Z,14.00
2023-05-18T20:28:54.330Z,13.70
2023-05-18T20:31:21.508Z,13.60
2023-05-18T20:33:53.865Z,13.60
2023-05-18T20:36:21.981Z,13.50
2023-05-18T20:38:53.011Z,13.60
2023-05-18T20:41:19.884Z,13.50
2023-05-18T20:43:52.307Z,13.30
2023-05-18T20:46:24.533Z,13.30
2023-05-18T20:48:54.954Z,13.10
2023-05-18T20:51:23.175Z,13.10
2023-05-18T20:53:53.376Z,13.20
2023-05-18T20:56:21.876Z,13.10
2023-05-18T20:58:50.327Z,13.10
2023-05-18T21:01:18.497Z,13.00
2023-05-18T21:03:48.677Z,12.80
2023-05-18T21:06:15.830Z,12.60
2023-05-18T21:08:45.223Z,12.40
2023-05-18T21:11:14.195Z,12.30
2023-05-18T21:13:46.623Z,12.20
2023-05-18T21:16:14.545Z,12.10
2023-05-18T21:18:43.537Z,11.90
2023-05-18T21:21:12.615Z,12.00
2023-05-18T21:23:39.724Z,12.20
2023-05-18T21:26:07.531Z,12.30
2023-05-18T21:28:36.374Z,12.40
2023-05-18T21:31:09.041Z,12.40
2023-05-18T21:33:36.175Z,12.50
2023-05-18T21:36:04.260Z,12.20
2023-05-18T21:38:31.082Z,12.20
2023-05-18T21:40:58.435Z,12.00
2023-05-18T21:43:25.532Z,12.00
2023-05-18T21:45:52.561Z,12.00
2023-05-18T21:48:21.621Z,12.10
2023-05-18T21:50:49.527Z,12.10
2023-05-18T21:53:20.618Z,12.30
2023-05-18T21:55:55.516Z,12.00
2023-05-18T21:58:29.523Z,12.00
2023-05-18T22:00:56.196Z,12.00
2023-05-18T22:03:23.607Z,12.10
2023-05-18T22:05:52.996Z,12.10
2023-05-18T22:08:21.833Z,12.00
2023-05-18T22:10:48.820Z,11.60
2023-05-18T22:13:18.715Z,11.80
2023-05-18T22:15:45.519Z,11.80
2023-05-18T22:18:15.625Z,11.90
2023-05-18T22:20:45.596Z,11.90
2023-05-18T22:23:12.684Z,12.00
2023-05-18T22:25:39.747Z,12.00
2023-05-18T22:28:06.835Z,11.80
2023-05-18T22:30:33.959Z,11.60
2023-05-18T22:33:04.046Z,11.40
2023-05-18T22:35:31.075Z,11.20
2023-05-18T22:37:57.808Z,11.20
2023-05-18T22:40:32.918Z,11.30
2023-05-18T22:43:00.907Z,11.20
2023-05-18T22:45:27.965Z,11.00
2023-05-18T22:47:55.129Z,10.90
2023-05-18T22:50:22.942Z,10.80
2023-05-18T22:52:52.128Z,10.70
2023-05-18T22:55:19.960Z,10.70
2023-05-18T22:57:46.910Z,10.80
2023-05-18T23:00:14.374Z,10.90
2023-05-18T23:02:43.309Z,11.00
2023-05-18T23:05:11.419Z,11.00
2023-05-18T23:07:38.524Z,10.90
2023-05-18T23:10:06.684Z,11.00
2023-05-18T23:12:33.729Z,11.20
2023-05-18T23:15:04.032Z,11.20
2023-05-18T23:17:33.631Z,11.20
2023-05-18T23:20:08.687Z,11.10
2023-05-18T23:22:37.482Z,11.20
2023-05-18T23:25:08.507Z,11.30
2023-05-18T23:27:36.545Z,11.10
2023-05-18T23:30:07.177Z,11.00
2023-05-18T23:32:34.886Z,11.00
2023-05-18T23:35:07.465Z,11.00
2023-05-18T23:37:38.601Z,11.10
2023-05-18T23:40:08.100Z,11.10
2023-05-18T23:42:35.382Z,10.70
2023-05-18T23:45:02.472Z,10.50
2023-05-18T23:47:29.525Z,10.60
2023-05-18T23:49:58.466Z,10.90
2023-05-18T23:52:26.603Z,10.90
2023-05-18T23:54:55.792Z,10.60
2023-05-18T23:57:26.030Z,10.40
2023-05-18T23:59:53.145Z,10.30
